Time;durP1;ratioP1;P1;durP2;ratioP2;P2;SDS_P1;SDS_P2;PMS_P1;PMS_P2;Temp;Humidity;BMP_temperature;BMP_pressure;BME280_temperature;BME280_humidity;BME280_pressure;Samples;Min_cycle;Max_cycle;Signal;HPM_P1;HPM_P2
2023/05/23 00:07:17;;;;;;;10.43;5.40;;;;;;;18.72;100.00;99892.94;31446942;28;20053;-74
2023/05/23 00:22:19;;;;;;;8.82;4.75;;;;;;;18.38;100.00;99891.69;31436499;28;20067;-74
2023/05/23 00:37:21;;;;;;;10.55;4.60;;;;;;;18.33;100.00;99884.09;31490576;28;20052;-74
2023/05/23 00:52:24;;;;;;;15.43;4.25;;;;;;;18.26;100.00;99881.75;31557286;28;20074;-75
2023/05/23 01:07:26;;;;;;;11.00;3.95;;;;;;;18.31;100.00;99884.59;31560126;28;20052;-73
2023/05/23 01:22:59;;;;;;;9.15;4.18;;;;;;;18.31;100.00;99897.56;31566759;28;20047;-74
2023/05/23 01:38:01;;;;;;;6.30;3.92;;;;;;;18.26;100.00;99911.97;31556995;28;20070;-75
2023/05/23 01:53:04;;;;;;;7.88;4.68;;;;;;;18.09;100.00;99925.44;31554345;28;20095;-75
2023/05/23 02:08:06;;;;;;;6.32;4.65;;;;;;;18.10;100.00;99926.19;31552158;28;20492;-74
2023/05/23 02:23:09;;;;;;;13.05;5.78;;;;;;;18.04;100.00;99940.56;31551669;28;20078;-75
2023/05/23 02:38:11;;;;;;;11.65;6.22;;;;;;;17.94;100.00;99947.41;31567065;28;20122;-74
2023/05/23 02:53:13;;;;;;;7.57;6.60;;;;;;;18.22;100.00;99938.88;31533623;28;20055;-75
2023/05/23 03:08:15;;;;;;;11.07;8.02;;;;;;;18.35;100.00;99936.59;31558109;28;20041;-73
2023/05/23 03:23:17;;;;;;;10.63;8.90;;;;;;;18.24;100.00;99939.16;31550114;28;20055;-73
2023/05/23 03:38:19;;;;;;;7.75;6.97;;;;;;;18.38;100.00;99930.16;31487115;28;20091;-74
2023/05/23 03:53:21;;;;;;;12.30;8.65;;;;;;;18.82;100.00;99924.59;31447409;28;20111;-74
2023/05/23 04:08:24;;;;;;;13.60;7.80;;;;;;;18.93;100.00;99929.47;31437721;28;20508;-74
2023/05/23 04:23:26;;;;;;;12.27;6.68;;;;;;;19.24;100.00;99923.38;31421490;28;20052;-74
2023/05/23 04:38:28;;;;;;;11.15;7.43;;;;;;;19.26;100.00;99926.41;31471990;28;20084;-75
2023/05/23 04:53:30;;;;;;;9.65;6.57;;;;;;;19.66;100.00;99934.66;31578343;28;20067;-75
2023/05/23 05:08:32;;;;;;;10.70;6.40;;;;;;;20.20;100.00;99936.91;31549277;28;20109;-74
2023/05/23 05:23:35;;;;;;;11.43;7.07;;;;;;;20.80;100.00;99940.63;31555545;28;20052;-75
2023/05/23 05:38:37;;;;;;;17.67;7.85;;;;;;;20.93;100.00;99932.69;31505123;28;20486;-75
2023/05/23 05:53:39;;;;;;;11.20;7.05;;;;;;;20.84;100.00;99938.41;31423855;28;20414;-76
2023/05/23 06:08:41;;;;;;;10.25;6.35;;;;;;;21.06;100.00;99921.97;31435545;28;20047;-75
2023/05/23 06:23:43;;;;;;;11.03;7.17;;;;;;;20.75;100.00;99922.81;31433699;28;20092;-74
2023/05/23 06:38:46;;;;;;;11.65;6.88;;;;;;;20.62;100.00;99917.72;31439528;28;20546;-74
2023/05/23 06:53:50;;;;;;;14.07;7.25;;;;;;;20.77;100.00;99907.28;31433739;28;20056;-77
2023/05/23 07:08:52;;;;;;;16.13;7.03;;;;;;;21.48;100.00;99909.38;31440973;28;20478;-73
2023/05/23 07:23:54;;;;;;;16.37;8.50;;;;;;;21.79;100.00;99920.22;31431198;28;20057;-74
2023/05/23 07:38:56;;;;;;;17.15;9.95;;;;;;;21.97;100.00;99908.69;31533887;28;20159;-76
2023/05/23 07:53:58;;;;;;;16.58;8.85;;;;;;;22.02;100.00;99916.25;31564949;28;20138;-76
2023/05/23 08:09:00;;;;;;;16.67;8.75;;;;;;;22.72;100.00;99897.84;31583637;28;20059;-77
2023/05/23 08:24:03;;;;;;;12.13;7.82;;;;;;;23.97;100.00;99892.75;31573101;28;20436;-78
2023/05/23 08:39:05;;;;;;;9.63;6.87;;;;;;;25.55;100.00;99878.69;31505691;28;20060;-78
2023/05/23 08:54:08;;;;;;;10.20;6.30;;;;;;;26.84;100.00;99870.44;31425794;28;20147;-80
2023/05/23 09:09:10;;;;;;;7.28;5.57;;;;;;;26.98;100.00;99850.97;31422674;28;20044;-79
2023/05/23 09:24:12;;;;;;;11.05;7.00;;;;;;;27.04;100.00;99843.25;31444467;28;20095;-80
2023/05/23 09:39:14;;;;;;;14.35;8.02;;;;;;;28.21;100.00;99825.81;31514718;28;20484;-77
2023/05/23 09:54:16;;;;;;;16.23;8.80;;;;;;;29.19;89.80;99836.78;31556179;28;20048;-86
2023/05/23 10:09:22;;;;;;;19.08;11.00;;;;;;;29.13;83.21;99834.16;31546891;28;20071;-77
2023/05/23 10:24:26;;;;;;;14.60;9.63;;;;;;;28.57;87.57;99826.63;31533285;28;20056;-79
2023/05/23 10:39:46;;;;;;;27.23;16.40;;;;;;;28.16;86.50;99821.84;31529242;28;20596;-74
2023/05/23 10:54:53;;;;;;;12.30;8.90;;;;;;;26.91;100.00;99818.19;31556186;28;20052;-77
2023/05/23 11:10:04;;;;;;;17.60;10.75;;;;;;;26.50;100.00;99808.34;31559521;28;20060;-77
2023/05/23 11:25:08;;;;;;;18.60;10.07;;;;;;;26.36;100.00;99810.41;31564100;28;20056;-77
2023/05/23 11:40:34;;;;;;;11.13;7.63;;;;;;;26.21;100.00;99818.50;31534480;28;20060;-76
2023/05/23 11:55:39;;;;;;;16.08;7.88;;;;;;;25.96;100.00;99801.25;31594161;28;20154;-76
2023/05/23 12:10:52;;;;;;;15.95;6.80;;;;;;;27.04;94.33;99793.09;31548241;28;20130;-78
2023/05/23 12:25:55;;;;;;;43.25;24.65;;;;;;;26.45;98.61;99806.44;31579540;28;20119;-79
2023/05/23 12:41:13;;;;;;;11.23;6.35;;;;;;;24.86;100.00;99807.13;31576419;28;20063;-80
2023/05/23 12:56:21;;;;;;;8.90;4.70;;;;;;;23.03;100.00;99816.50;31551077;28;20091;-80
2023/05/23 13:11:23;;;;;;;9.40;5.57;;;;;;;22.68;100.00;99804.03;31558771;28;20040;-79
2023/05/23 13:26:28;;;;;;;8.10;5.57;;;;;;;22.56;100.00;99791.53;31561510;28;20135;-76
2023/05/23 13:41:30;;;;;;;8.73;4.53;;;;;;;22.95;100.00;99810.75;31475225;28;20048;-77
2023/05/23 13:56:32;;;;;;;11.43;5.40;;;;;;;23.12;100.00;99813.44;31440518;28;20124;-75
2023/05/23 14:11:34;;;;;;;33.10;15.27;;;;;;;22.88;100.00;99808.53;31444729;28;20410;-75
2023/05/23 14:26:39;;;;;;;46.20;18.50;;;;;;;22.99;100.00;99800.16;31450145;28;20044;-76
2023/05/23 14:41:41;;;;;;;26.38;10.27;;;;;;;23.02;100.00;99792.84;31521502;28;20056;-75
2023/05/23 14:56:44;;;;;;;13.43;6.57;;;;;;;23.03;100.00;99794.34;31552054;28;20083;-75
2023/05/23 15:11:48;;;;;;;11.93;4.37;;;;;;;23.02;100.00;99787.31;31538556;28;20132;-75
2023/05/23 15:26:50;;;;;;;4.18;3.17;;;;;;;22.99;100.00;99785.56;31521758;28;20420;-77
2023/05/23 15:41:52;;;;;;;9.57;2.65;;;;;;;22.72;100.00;99787.94;31500217;28;20053;-80
2023/05/23 15:56:54;;;;;;;8.03;4.47;;;;;;;22.54;100.00;99771.91;31460899;28;20064;-75
2023/05/23 16:11:56;;;;;;;10.75;5.35;;;;;;;22.51;100.00;99778.44;31457689;28;20055;-74
2023/05/23 16:27:00;;;;;;;6.50;3.60;;;;;;;22.37;100.00;99785.81;31484355;28;20422;-75
2023/05/23 16:42:01;;;;;;;;;;;;;;;22.30;100.00;99802.16;31494553;28;20052;-75
2023/05/23 16:57:04;;;;;;;7.28;2.67;;;;;;;22.02;100.00;99800.19;31532939;28;19927;-75
2023/05/23 17:12:06;;;;;;;5.57;2.60;;;;;;;21.67;100.00;99803.44;31558017;28;20056;-75
2023/05/23 17:27:08;;;;;;;8.10;4.75;;;;;;;21.48;100.00;99829.28;31572413;28;20143;-75
2023/05/23 17:42:11;;;;;;;6.32;3.45;;;;;;;21.20;100.00;99840.25;31593838;28;20396;-76
2023/05/23 17:57:14;;;;;;;9.67;5.10;;;;;;;21.13;100.00;99877.34;31535823;28;20556;-76
2023/05/23 18:12:16;;;;;;;25.23;15.27;;;;;;;21.19;100.00;99888.41;31539195;28;20055;-77
2023/05/23 18:27:18;;;;;;;7.07;4.22;;;;;;;21.04;100.00;99891.34;31538180;28;20040;-77
2023/05/23 18:42:20;;;;;;;9.50;6.00;;;;;;;20.93;100.00;99891.31;31546350;28;20509;-79
2023/05/23 18:57:23;;;;;;;7.07;4.78;;;;;;;20.71;100.00;99892.69;31533192;28;20388;-77
2023/05/23 19:26:21;;;;;;;6.93;4.75;;;;;;;20.62;100.00;99906.69;31704269;27;20464;-77
2023/05/23 19:41:24;;;;;;;8.93;4.70;;;;;;;20.49;100.00;99892.56;31602612;28;20135;-77
2023/05/23 19:56:26;;;;;;;5.85;3.88;;;;;;;20.37;100.00;99885.44;31600477;28;20056;-76
2023/05/23 20:11:28;;;;;;;7.07;3.90;;;;;;;20.10;100.00;99890.22;31588673;28;20056;-76
2023/05/23 20:26:30;;;;;;;9.02;4.20;;;;;;;20.06;100.00;99889.72;31627482;28;20044;-77
2023/05/23 20:41:32;;;;;;;5.68;4.07;;;;;;;19.99;100.00;99887.41;31603664;28;20139;-76
2023/05/23 20:56:34;;;;;;;9.32;7.10;;;;;;;19.79;100.00;99881.22;31625355;28;20043;-76
2023/05/23 21:11:37;;;;;;;9.38;5.75;;;;;;;19.74;100.00;99886.16;31591881;28;20052;-75
2023/05/23 21:26:39;;;;;;;7.00;4.30;;;;;;;19.74;100.00;99863.38;31605487;28;20515;-75
2023/05/23 21:41:41;;;;;;;6.10;3.88;;;;;;;19.81;100.00;99876.72;31589871;28;20044;-75
2023/05/23 21:56:43;;;;;;;6.50;3.75;;;;;;;19.72;100.00;99876.88;31611551;28;20040;-75
2023/05/23 22:11:45;;;;;;;8.98;4.90;;;;;;;19.59;100.00;99890.28;31608384;28;20501;-76
2023/05/23 22:26:47;;;;;;;8.82;4.90;;;;;;;19.70;100.00;99887.63;31617926;28;20056;-75
2023/05/23 22:41:49;;;;;;;9.15;5.20;;;;;;;19.52;100.00;99874.94;31602471;28;20086;-74
2023/05/23 22:56:51;;;;;;;9.38;4.95;;;;;;;19.38;100.00;99887.50;31603712;28;20082;-74
2023/05/23 23:11:53;;;;;;;8.95;4.75;;;;;;;19.32;100.00;99905.97;31583449;28;20078;-75
2023/05/23 23:26:55;;;;;;;8.23;4.75;;;;;;;19.05;100.00;99915.41;31596559;28;20047;-76
2023/05/23 23:41:57;;;;;;;7.57;4.78;;;;;;;18.70;100.00;99914.66;31572735;28;20382;-76
2023/05/23 23:56:59;;;;;;;13.57;7.63;;;;;;;18.67;100.00;99910.88;31589743;28;20140;-75
